LWSKLATI

Guest
Details From LWSK - Skopje
To LATI - Tirana Rinas
Flight Number -
Tags generated
Created
Modified
Stats Distance 92 nm / 170 km
Max Altitude 10,000 ft / 3,048 m
Waypoints 5
Social Downloads 2
Likes 0
Share VATSIM

Download

Looking for another format? Having issues loading an existing format? Contact us
Advertisement - Login to hide

Notes

Basic altitude profile: - Ascent Rate: 2500ft/min - Ascent Speed: 250kts - Cruise Altitude: 35000ft - Cruise Speed: 420kts - Descent Rate: 1500ft/min - Descent Speed: 250kts Options: - Use NATs: yes - Use PACOTS: yes - Use low airways: yes - Use high airways: yes

Route

LWSK GOSTI W31 TRN LATI

ID Type Via Altitude Latitude Longitude Leg Dist Tot Dist Heading (true) Name
O LWSK APT - 0 ft / 0 m 41.96162˚ 21.62137˚ - 0 nm - Skopje
GOSTI FIX - 8,800 ft / 2,682 m 41.81167˚ 21.10833˚ 24 nm 24 nm 249° / 248° -
MAVAR FIX W31 (AWY-LO) 8,500 ft / 2,591 m 41.67000˚ 20.53000˚ 27 nm 51 nm 252° / 252° -
TRN VOR W31 (AWY-LO) 10,000 ft / 3,048 m 41.41612˚ 19.71819˚ 39 nm 91 nm 248° / 247° TIRANA VOR-DME
O LATI APT - 0 ft / 0 m 41.41473˚ 19.72057˚ 0 nm 91 nm 128° / 128° Tirana Rinas

Altitude Profile

Advertisement - Login to hide

LWSK

Details ICAO LWSK (SKP)
Name Skopje
Region Macedonia
Timezone Europe/Skopje (UTC+1.0)
Stats Elevation 781 ft / 238 m (AMSL)
Location 41.961619° 21.621372°
Runways 1
Magnetic Variation 4.578° E

METAR

LWSK 121630Z VRB02KT CAVOK 04/02 Q1021 NOSIG

Decode

TAF

TAF LWSK 121430Z 1215/1315 VRB02KT CAVOK

Decode

Departure Runways

ID Width Length Bearing (true) Bearing (mag) Surface Threshold Offset Overrun Length
16 140 ft / 43 m 8,036 ft / 2,449 m 165.46° 160.88° Asphalt 0 ft / 0 m 80 ft / 24 m
34 140 ft / 43 m 8,036 ft / 2,449 m 345.47° 340.89° Asphalt 0 ft / 0 m 80 ft / 24 m

LATI

Details ICAO LATI (TIA)
Name Tirana Rinas
Region Albania
Timezone Europe/Tirane (UTC+1.0)
Stats Elevation 126 ft / 38 m (AMSL)
Location 41.414732° 19.720569°
Runways 1
Magnetic Variation 4.232° E

METAR

LATI 121620Z 15006KT 9999 BKN050 15/07 Q1020 NOSIG

Decode

TAF

TAF LATI 121100Z 1212/1312 16010KT 9999 SCT040 SCT070 TX18/1212Z TN06/1305Z

Decode

Destination Runways

ID Width Length Bearing (true) Bearing (mag) Surface Threshold Offset Overrun Length
18 148 ft / 45 m 8,984 ft / 2,738 m 174.31° 170.08° Asphalt 500 ft / 152 m 0 ft / 0 m
36 148 ft / 45 m 8,984 ft / 2,738 m 354.31° 350.08° Asphalt 500 ft / 152 m 0 ft / 0 m

Popular Alternatives